sensor_id;sensor_type;location;lat;lon;timestamp;temperature;humidity
45549;DHT22;31270;48.328;10.096;2023-06-26T00:00:47;17.70;99.90
45549;DHT22;31270;48.328;10.096;2023-06-26T00:03:13;17.70;99.90
45549;DHT22;31270;48.328;10.096;2023-06-26T00:05:41;17.60;99.90
45549;DHT22;31270;48.328;10.096;2023-06-26T00:08:07;17.60;99.90
45549;DHT22;31270;48.328;10.096;2023-06-26T00:10:33;17.60;99.90
45549;DHT22;31270;48.328;10.096;2023-06-26T00:12:59;17.50;99.90
45549;DHT22;31270;48.328;10.096;2023-06-26T00:15:25;17.50;99.90
45549;DHT22;31270;48.328;10.096;2023-06-26T00:17:50;17.50;99.90
45549;DHT22;31270;48.328;10.096;2023-06-26T00:20:16;17.40;99.90
45549;DHT22;31270;48.328;10.096;2023-06-26T00:22:42;17.40;99.90
45549;DHT22;31270;48.328;10.096;2023-06-26T00:25:07;17.40;99.90
45549;DHT22;31270;48.328;10.096;2023-06-26T00:27:33;17.40;99.90
45549;DHT22;31270;48.328;10.096;2023-06-26T00:29:59;17.30;99.90
45549;DHT22;31270;48.328;10.096;2023-06-26T00:32:24;17.30;99.90
45549;DHT22;31270;48.328;10.096;2023-06-26T00:34:50;17.20;99.90
45549;DHT22;31270;48.328;10.096;2023-06-26T00:37:16;17.20;99.90
45549;DHT22;31270;48.328;10.096;2023-06-26T00:39:41;17.20;99.90
45549;DHT22;31270;48.328;10.096;2023-06-26T00:42:07;17.20;99.90
45549;DHT22;31270;48.328;10.096;2023-06-26T00:44:32;17.10;99.90
45549;DHT22;31270;48.328;10.096;2023-06-26T00:46:58;17.20;99.90
45549;DHT22;31270;48.328;10.096;2023-06-26T00:49:25;17.10;99.90
45549;DHT22;31270;48.328;10.096;2023-06-26T00:51:51;17.10;99.90
45549;DHT22;31270;48.328;10.096;2023-06-26T00:54:17;17.00;99.90
45549;DHT22;31270;48.328;10.096;2023-06-26T00:56:46;17.00;99.90
45549;DHT22;31270;48.328;10.096;2023-06-26T00:59:13;17.00;99.90
45549;DHT22;31270;48.328;10.096;2023-06-26T01:01:39;16.90;99.90
45549;DHT22;31270;48.328;10.096;2023-06-26T01:04:04;16.90;99.90
45549;DHT22;31270;48.328;10.096;2023-06-26T01:06:31;16.90;99.90
45549;DHT22;31270;48.328;10.096;2023-06-26T01:09:01;16.80;99.90
45549;DHT22;31270;48.328;10.096;2023-06-26T01:11:27;16.90;99.90
45549;DHT22;31270;48.328;10.096;2023-06-26T01:13:53;16.80;99.90
45549;DHT22;31270;48.328;10.096;2023-06-26T01:16:21;16.80;99.90
45549;DHT22;31270;48.328;10.096;2023-06-26T01:18:48;16.80;99.90
45549;DHT22;31270;48.328;10.096;2023-06-26T01:21:14;16.80;99.90
45549;DHT22;31270;48.328;10.096;2023-06-26T01:23:48;16.80;99.90
45549;DHT22;31270;48.328;10.096;2023-06-26T01:26:22;16.80;99.90
45549;DHT22;31270;48.328;10.096;2023-06-26T01:28:50;16.80;99.90
45549;DHT22;31270;48.328;10.096;2023-06-26T01:31:17;16.80;99.90
45549;DHT22;31270;48.328;10.096;2023-06-26T01:33:45;16.80;99.90
45549;DHT22;31270;48.328;10.096;2023-06-26T01:36:11;16.80;99.90
45549;DHT22;31270;48.328;10.096;2023-06-26T01:38:36;16.70;99.90
45549;DHT22;31270;48.328;10.096;2023-06-26T01:41:03;16.70;99.90
45549;DHT22;31270;48.328;10.096;2023-06-26T01:49:21;16.70;99.90
45549;DHT22;31270;48.328;10.096;2023-06-26T01:57:26;16.80;99.90
45549;DHT22;31270;48.328;10.096;2023-06-26T01:59:54;16.70;99.90
45549;DHT22;31270;48.328;10.096;2023-06-26T02:02:23;16.70;99.90
45549;DHT22;31270;48.328;10.096;2023-06-26T02:04:49;16.70;99.90
45549;DHT22;31270;48.328;10.096;2023-06-26T02:07:15;16.70;99.90
45549;DHT22;31270;48.328;10.096;2023-06-26T02:09:40;16.70;99.90
45549;DHT22;31270;48.328;10.096;2023-06-26T02:12:06;16.60;99.90
45549;DHT22;31270;48.328;10.096;2023-06-26T02:14:32;16.60;99.90
45549;DHT22;31270;48.328;10.096;2023-06-26T02:16:58;16.60;99.90
45549;DHT22;31270;48.328;10.096;2023-06-26T02:19:26;16.60;99.90
45549;DHT22;31270;48.328;10.096;2023-06-26T02:21:53;16.50;99.90
45549;DHT22;31270;48.328;10.096;2023-06-26T02:24:21;16.50;99.90
45549;DHT22;31270;48.328;10.096;2023-06-26T02:26:47;16.30;99.90
45549;DHT22;31270;48.328;10.096;2023-06-26T02:29:14;16.20;99.90
45549;DHT22;31270;48.328;10.096;2023-06-26T02:31:40;16.20;99.90
45549;DHT22;31270;48.328;10.096;2023-06-26T02:34:06;16.20;99.90
45549;DHT22;31270;48.328;10.096;2023-06-26T02:36:32;16.20;99.90
45549;DHT22;31270;48.328;10.096;2023-06-26T02:38:57;16.20;99.90
45549;DHT22;31270;48.328;10.096;2023-06-26T02:41:23;16.20;99.90
45549;DHT22;31270;48.328;10.096;2023-06-26T02:43:49;16.20;99.90
45549;DHT22;31270;48.328;10.096;2023-06-26T02:46:14;16.20;99.90
45549;DHT22;31270;48.328;10.096;2023-06-26T02:48:40;16.10;99.90
45549;DHT22;31270;48.328;10.096;2023-06-26T02:51:07;16.10;99.90
45549;DHT22;31270;48.328;10.096;2023-06-26T02:53:33;16.10;99.90
45549;DHT22;31270;48.328;10.096;2023-06-26T02:55:58;16.10;99.90
45549;DHT22;31270;48.328;10.096;2023-06-26T02:58:24;16.10;99.90
45549;DHT22;31270;48.328;10.096;2023-06-26T03:00:50;16.00;99.90
45549;DHT22;31270;48.328;10.096;2023-06-26T03:03:16;15.90;99.90
45549;DHT22;31270;48.328;10.096;2023-06-26T03:05:42;15.90;99.90
45549;DHT22;31270;48.328;10.096;2023-06-26T03:08:08;15.80;99.90
45549;DHT22;31270;48.328;10.096;2023-06-26T03:10:33;15.80;99.90
45549;DHT22;31270;48.328;10.096;2023-06-26T03:12:59;15.80;99.90
45549;DHT22;31270;48.328;10.096;2023-06-26T03:15:25;15.70;99.90
45549;DHT22;31270;48.328;10.096;2023-06-26T03:17:50;15.70;99.90
45549;DHT22;31270;48.328;10.096;2023-06-26T03:20:16;15.70;99.90
45549;DHT22;31270;48.328;10.096;2023-06-26T03:22:42;15.60;99.90
45549;DHT22;31270;48.328;10.096;2023-06-26T03:25:07;15.60;99.90
45549;DHT22;31270;48.328;10.096;2023-06-26T03:27:33;15.50;99.90
45549;DHT22;31270;48.328;10.096;2023-06-26T03:29:59;15.50;99.90
45549;DHT22;31270;48.328;10.096;2023-06-26T03:32:25;15.60;99.90
45549;DHT22;31270;48.328;10.096;2023-06-26T03:34:51;15.50;99.90
45549;DHT22;31270;48.328;10.096;2023-06-26T03:37:18;15.40;99.90
45549;DHT22;31270;48.328;10.096;2023-06-26T03:39:44;15.40;99.90
45549;DHT22;31270;48.328;10.096;2023-06-26T03:42:09;15.40;99.90
45549;DHT22;31270;48.328;10.096;2023-06-26T03:44:35;15.30;99.90
45549;DHT22;31270;48.328;10.096;2023-06-26T03:47:01;15.30;99.90
45549;DHT22;31270;48.328;10.096;2023-06-26T03:49:26;15.40;99.90
45549;DHT22;31270;48.328;10.096;2023-06-26T03:51:52;15.40;99.90
45549;DHT22;31270;48.328;10.096;2023-06-26T03:54:18;15.40;99.90
45549;DHT22;31270;48.328;10.096;2023-06-26T03:56:44;15.30;99.90
45549;DHT22;31270;48.328;10.096;2023-06-26T03:59:10;15.30;99.90
45549;DHT22;31270;48.328;10.096;2023-06-26T04:01:36;15.30;99.90
45549;DHT22;31270;48.328;10.096;2023-06-26T04:04:02;15.40;99.90
45549;DHT22;31270;48.328;10.096;2023-06-26T04:06:28;15.40;99.90
45549;DHT22;31270;48.328;10.096;2023-06-26T04:08:57;15.50;99.90
45549;DHT22;31270;48.328;10.096;2023-06-26T04:11:22;15.60;99.90
45549;DHT22;31270;48.328;10.096;2023-06-26T04:13:48;15.60;99.90
45549;DHT22;31270;48.328;10.096;2023-06-26T04:16:14;15.70;99.90
45549;DHT22;31270;48.328;10.096;2023-06-26T04:18:41;15.80;99.90
45549;DHT22;31270;48.328;10.096;2023-06-26T04:21:11;15.80;99.90
45549;DHT22;31270;48.328;10.096;2023-06-26T04:23:38;15.90;99.90
45549;DHT22;31270;48.328;10.096;2023-06-26T04:26:05;15.90;99.90
45549;DHT22;31270;48.328;10.096;2023-06-26T04:28:34;16.00;99.90
45549;DHT22;31270;48.328;10.096;2023-06-26T04:31:03;16.10;99.90
45549;DHT22;31270;48.328;10.096;2023-06-26T04:33:36;16.10;99.90
45549;DHT22;31270;48.328;10.096;2023-06-26T04:36:05;16.20;99.90
45549;DHT22;31270;48.328;10.096;2023-06-26T04:38:32;16.30;99.90
45549;DHT22;31270;48.328;10.096;2023-06-26T04:40:59;16.50;99.90
45549;DHT22;31270;48.328;10.096;2023-06-26T04:43:24;16.50;99.90
45549;DHT22;31270;48.328;10.096;2023-06-26T04:45:50;16.80;99.90
45549;DHT22;31270;48.328;10.096;2023-06-26T04:48:16;16.80;99.90
45549;DHT22;31270;48.328;10.096;2023-06-26T04:50:42;17.00;99.90
45549;DHT22;31270;48.328;10.096;2023-06-26T04:53:08;17.10;99.90
45549;DHT22;31270;48.328;10.096;2023-06-26T04:55:34;17.30;99.90
45549;DHT22;31270;48.328;10.096;2023-06-26T04:58:00;17.40;99.90
45549;DHT22;31270;48.328;10.096;2023-06-26T05:00:25;17.50;99.90
45549;DHT22;31270;48.328;10.096;2023-06-26T05:02:51;17.60;99.90
45549;DHT22;31270;48.328;10.096;2023-06-26T05:05:26;17.70;99.90
45549;DHT22;31270;48.328;10.096;2023-06-26T05:07:54;17.80;99.90
45549;DHT22;31270;48.328;10.096;2023-06-26T05:10:19;17.90;99.90
45549;DHT22;31270;48.328;10.096;2023-06-26T05:12:45;18.00;99.90
45549;DHT22;31270;48.328;10.096;2023-06-26T05:15:10;18.20;99.90
45549;DHT22;31270;48.328;10.096;2023-06-26T05:17:36;18.30;99.90
45549;DHT22;31270;48.328;10.096;2023-06-26T05:20:03;18.40;99.90
45549;DHT22;31270;48.328;10.096;2023-06-26T05:22:34;18.50;99.90
45549;DHT22;31270;48.328;10.096;2023-06-26T05:25:01;18.70;99.90
45549;DHT22;31270;48.328;10.096;2023-06-26T05:27:28;18.70;99.90
45549;DHT22;31270;48.328;10.096;2023-06-26T05:29:53;18.80;99.90
45549;DHT22;31270;48.328;10.096;2023-06-26T05:32:19;19.00;99.90
45549;DHT22;31270;48.328;10.096;2023-06-26T05:34:49;19.20;99.90
45549;DHT22;31270;48.328;10.096;2023-06-26T05:37:20;19.30;99.90
45549;DHT22;31270;48.328;10.096;2023-06-26T05:39:47;19.50;99.90
45549;DHT22;31270;48.328;10.096;2023-06-26T05:42:13;19.70;99.90
45549;DHT22;31270;48.328;10.096;2023-06-26T05:44:39;19.60;99.90
45549;DHT22;31270;48.328;10.096;2023-06-26T05:47:05;19.90;99.90
45549;DHT22;31270;48.328;10.096;2023-06-26T05:49:31;20.10;99.90
45549;DHT22;31270;48.328;10.096;2023-06-26T05:51:57;20.20;99.90
45549;DHT22;31270;48.328;10.096;2023-06-26T05:54:24;20.40;99.90
45549;DHT22;31270;48.328;10.096;2023-06-26T05:56:56;20.60;99.90
45549;DHT22;31270;48.328;10.096;2023-06-26T05:59:22;20.80;99.90
45549;DHT22;31270;48.328;10.096;2023-06-26T06:01:48;20.90;99.90
45549;DHT22;31270;48.328;10.096;2023-06-26T06:04:13;21.00;99.90
45549;DHT22;31270;48.328;10.096;2023-06-26T06:06:39;21.30;99.90
45549;DHT22;31270;48.328;10.096;2023-06-26T06:09:05;21.40;99.90
45549;DHT22;31270;48.328;10.096;2023-06-26T06:11:30;21.60;99.90
45549;DHT22;31270;48.328;10.096;2023-06-26T06:13:56;21.80;99.90
45549;DHT22;31270;48.328;10.096;2023-06-26T06:16:24;22.00;99.90
45549;DHT22;31270;48.328;10.096;2023-06-26T06:18:49;22.20;99.90
45549;DHT22;31270;48.328;10.096;2023-06-26T06:21:15;22.40;99.90
45549;DHT22;31270;48.328;10.096;2023-06-26T06:23:40;22.70;99.90
45549;DHT22;31270;48.328;10.096;2023-06-26T06:26:06;22.80;99.90
45549;DHT22;31270;48.328;10.096;2023-06-26T06:28:32;22.90;99.90
45549;DHT22;31270;48.328;10.096;2023-06-26T06:30:57;23.10;99.90
45549;DHT22;31270;48.328;10.096;2023-06-26T06:33:23;23.20;99.90
45549;DHT22;31270;48.328;10.096;2023-06-26T06:35:48;23.30;99.90
45549;DHT22;31270;48.328;10.096;2023-06-26T06:38:14;23.60;99.90
45549;DHT22;31270;48.328;10.096;2023-06-26T06:40:40;23.60;99.90
45549;DHT22;31270;48.328;10.096;2023-06-26T06:43:05;23.80;99.90
45549;DHT22;31270;48.328;10.096;2023-06-26T06:45:31;24.10;99.90
45549;DHT22;31270;48.328;10.096;2023-06-26T06:47:57;24.30;99.90
45549;DHT22;31270;48.328;10.096;2023-06-26T06:50:22;24.60;99.90
45549;DHT22;31270;48.328;10.096;2023-06-26T06:52:48;24.60;99.90
45549;DHT22;31270;48.328;10.096;2023-06-26T06:55:13;24.70;99.90
45549;DHT22;31270;48.328;10.096;2023-06-26T06:57:40;24.90;99.90
45549;DHT22;31270;48.328;10.096;2023-06-26T07:00:10;25.10;99.90
45549;DHT22;31270;48.328;10.096;2023-06-26T07:02:42;25.30;99.90
45549;DHT22;31270;48.328;10.096;2023-06-26T07:05:08;25.50;99.90
45549;DHT22;31270;48.328;10.096;2023-06-26T07:07:35;25.60;99.90
45549;DHT22;31270;48.328;10.096;2023-06-26T07:10:07;25.80;99.90
45549;DHT22;31270;48.328;10.096;2023-06-26T07:12:34;26.20;99.90
45549;DHT22;31270;48.328;10.096;2023-06-26T07:15:01;26.20;99.90
45549;DHT22;31270;48.328;10.096;2023-06-26T07:17:28;26.30;99.90
45549;DHT22;31270;48.328;10.096;2023-06-26T07:19:53;26.40;99.90
45549;DHT22;31270;48.328;10.096;2023-06-26T07:22:19;26.50;99.90
45549;DHT22;31270;48.328;10.096;2023-06-26T07:24:52;26.70;99.90
45549;DHT22;31270;48.328;10.096;2023-06-26T07:27:18;26.80;99.90
45549;DHT22;31270;48.328;10.096;2023-06-26T07:29:44;27.20;99.90
45549;DHT22;31270;48.328;10.096;2023-06-26T07:32:10;27.40;99.90
45549;DHT22;31270;48.328;10.096;2023-06-26T07:34:36;27.60;99.90
45549;DHT22;31270;48.328;10.096;2023-06-26T07:37:02;27.60;99.90
45549;DHT22;31270;48.328;10.096;2023-06-26T07:39:27;27.80;99.90
45549;DHT22;31270;48.328;10.096;2023-06-26T07:41:53;28.10;99.90
45549;DHT22;31270;48.328;10.096;2023-06-26T07:44:18;28.30;99.90
45549;DHT22;31270;48.328;10.096;2023-06-26T07:46:44;28.60;99.90
45549;DHT22;31270;48.328;10.096;2023-06-26T07:49:10;28.60;99.90
45549;DHT22;31270;48.328;10.096;2023-06-26T07:51:36;28.60;99.90
45549;DHT22;31270;48.328;10.096;2023-06-26T07:54:02;28.70;99.90
45549;DHT22;31270;48.328;10.096;2023-06-26T07:56:28;28.90;99.90
45549;DHT22;31270;48.328;10.096;2023-06-26T07:58:53;29.00;99.90
45549;DHT22;31270;48.328;10.096;2023-06-26T08:01:19;29.40;99.90
45549;DHT22;31270;48.328;10.096;2023-06-26T08:03:45;29.70;99.90
45549;DHT22;31270;48.328;10.096;2023-06-26T08:06:10;29.80;99.90
45549;DHT22;31270;48.328;10.096;2023-06-26T08:08:36;30.00;99.90
45549;DHT22;31270;48.328;10.096;2023-06-26T08:11:01;30.10;99.90
45549;DHT22;31270;48.328;10.096;2023-06-26T08:13:27;30.10;99.90
45549;DHT22;31270;48.328;10.096;2023-06-26T08:15:53;30.20;99.90
45549;DHT22;31270;48.328;10.096;2023-06-26T08:18:19;30.30;99.90
45549;DHT22;31270;48.328;10.096;2023-06-26T08:20:44;30.50;99.90
45549;DHT22;31270;48.328;10.096;2023-06-26T08:23:10;30.60;99.90
45549;DHT22;31270;48.328;10.096;2023-06-26T08:25:35;30.80;99.90
45549;DHT22;31270;48.328;10.096;2023-06-26T08:28:01;30.80;99.90
45549;DHT22;31270;48.328;10.096;2023-06-26T08:30:27;30.90;99.90
45549;DHT22;31270;48.328;10.096;2023-06-26T08:32:56;30.60;99.10
45549;DHT22;31270;48.328;10.096;2023-06-26T08:35:22;31.00;99.90
45549;DHT22;31270;48.328;10.096;2023-06-26T08:37:47;31.30;99.90
45549;DHT22;31270;48.328;10.096;2023-06-26T08:40:16;31.60;99.10
45549;DHT22;31270;48.328;10.096;2023-06-26T08:42:44;31.70;99.00
45549;DHT22;31270;48.328;10.096;2023-06-26T08:45:10;32.10;98.60
45549;DHT22;31270;48.328;10.096;2023-06-26T08:47:35;32.30;99.90
45549;DHT22;31270;48.328;10.096;2023-06-26T08:50:11;32.30;97.20
45549;DHT22;31270;48.328;10.096;2023-06-26T08:52:43;32.30;98.00
45549;DHT22;31270;48.328;10.096;2023-06-26T08:55:12;32.50;97.20
45549;DHT22;31270;48.328;10.096;2023-06-26T08:57:40;32.80;97.30
45549;DHT22;31270;48.328;10.096;2023-06-26T09:00:06;32.80;95.20
45549;DHT22;31270;48.328;10.096;2023-06-26T09:02:37;32.60;95.60
45549;DHT22;31270;48.328;10.096;2023-06-26T09:05:03;32.70;94.30
45549;DHT22;31270;48.328;10.096;2023-06-26T09:07:29;32.90;95.50
45549;DHT22;31270;48.328;10.096;2023-06-26T09:09:55;32.80;94.30
45549;DHT22;31270;48.328;10.096;2023-06-26T09:12:21;32.80;94.10
45549;DHT22;31270;48.328;10.096;2023-06-26T09:14:47;32.80;94.60
45549;DHT22;31270;48.328;10.096;2023-06-26T09:17:15;33.10;94.70
45549;DHT22;31270;48.328;10.096;2023-06-26T09:19:45;33.10;93.60
45549;DHT22;31270;48.328;10.096;2023-06-26T09:22:13;33.10;93.60
45549;DHT22;31270;48.328;10.096;2023-06-26T09:24:41;33.10;93.20
45549;DHT22;31270;48.328;10.096;2023-06-26T09:27:07;33.10;93.90
45549;DHT22;31270;48.328;10.096;2023-06-26T09:29:33;33.40;93.60
45549;DHT22;31270;48.328;10.096;2023-06-26T09:31:59;33.60;91.90
45549;DHT22;31270;48.328;10.096;2023-06-26T09:34:32;33.50;92.30
45549;DHT22;31270;48.328;10.096;2023-06-26T09:36:58;33.50;91.20
45549;DHT22;31270;48.328;10.096;2023-06-26T09:39:24;33.80;92.50
45549;DHT22;31270;48.328;10.096;2023-06-26T09:41:50;34.00;92.60
45549;DHT22;31270;48.328;10.096;2023-06-26T09:44:16;34.30;90.60
45549;DHT22;31270;48.328;10.096;2023-06-26T09:46:45;34.30;90.70
45549;DHT22;31270;48.328;10.096;2023-06-26T09:49:12;34.30;90.80
45549;DHT22;31270;48.328;10.096;2023-06-26T09:51:40;34.30;90.90
45549;DHT22;31270;48.328;10.096;2023-06-26T09:54:08;34.30;90.60
45549;DHT22;31270;48.328;10.096;2023-06-26T09:56:34;34.60;89.50
45549;DHT22;31270;48.328;10.096;2023-06-26T09:59:02;35.00;90.20
45549;DHT22;31270;48.328;10.096;2023-06-26T10:01:29;34.60;87.20
45549;DHT22;31270;48.328;10.096;2023-06-26T10:03:55;34.70;88.10
45549;DHT22;31270;48.328;10.096;2023-06-26T10:06:46;34.40;86.30
45549;DHT22;31270;48.328;10.096;2023-06-26T10:09:19;34.80;87.40
45549;DHT22;31270;48.328;10.096;2023-06-26T10:12:07;35.10;83.60
45549;DHT22;31270;48.328;10.096;2023-06-26T10:14:37;35.60;84.70
45549;DHT22;31270;48.328;10.096;2023-06-26T10:17:13;35.70;86.80
45549;DHT22;31270;48.328;10.096;2023-06-26T10:19:44;36.10;86.10
45549;DHT22;31270;48.328;10.096;2023-06-26T10:22:12;36.10;80.90
45549;DHT22;31270;48.328;10.096;2023-06-26T10:24:40;36.00;80.80
45549;DHT22;31270;48.328;10.096;2023-06-26T10:27:16;36.00;80.90
45549;DHT22;31270;48.328;10.096;2023-06-26T10:29:48;36.30;82.20
45549;DHT22;31270;48.328;10.096;2023-06-26T10:32:15;36.20;81.30
45549;DHT22;31270;48.328;10.096;2023-06-26T10:34:42;36.00;81.70
45549;DHT22;31270;48.328;10.096;2023-06-26T10:37:08;35.40;80.50
45549;DHT22;31270;48.328;10.096;2023-06-26T10:39:52;35.10;80.30
45549;DHT22;31270;48.328;10.096;2023-06-26T10:42:20;35.20;81.00
45549;DHT22;31270;48.328;10.096;2023-06-26T10:44:53;35.30;79.70
45549;DHT22;31270;48.328;10.096;2023-06-26T10:49:55;35.80;79.80
45549;DHT22;31270;48.328;10.096;2023-06-26T10:52:21;36.10;77.90
45549;DHT22;31270;48.328;10.096;2023-06-26T10:54:47;36.40;78.00
45549;DHT22;31270;48.328;10.096;2023-06-26T10:57:25;36.50;76.30
45549;DHT22;31270;48.328;10.096;2023-06-26T11:00:11;35.90;74.00
45549;DHT22;31270;48.328;10.096;2023-06-26T11:02:52;35.90;74.90
45549;DHT22;31270;48.328;10.096;2023-06-26T11:05:29;35.80;76.50
45549;DHT22;31270;48.328;10.096;2023-06-26T11:08:06;35.40;72.70
45549;DHT22;31270;48.328;10.096;2023-06-26T11:10:54;35.40;72.40
45549;DHT22;31270;48.328;10.096;2023-06-26T11:13:26;35.40;73.30
45549;DHT22;31270;48.328;10.096;2023-06-26T11:15:52;35.30;72.20
45549;DHT22;31270;48.328;10.096;2023-06-26T11:18:22;35.60;74.40
45549;DHT22;31270;48.328;10.096;2023-06-26T11:20:48;35.60;72.70
45549;DHT22;31270;48.328;10.096;2023-06-26T11:23:13;35.40;73.10
45549;DHT22;31270;48.328;10.096;2023-06-26T11:25:45;35.50;73.90
45549;DHT22;31270;48.328;10.096;2023-06-26T11:28:11;35.70;72.70
45549;DHT22;31270;48.328;10.096;2023-06-26T11:30:36;35.40;70.40
45549;DHT22;31270;48.328;10.096;2023-06-26T11:33:09;35.90;71.10
45549;DHT22;31270;48.328;10.096;2023-06-26T11:35:35;36.10;72.80
45549;DHT22;31270;48.328;10.096;2023-06-26T11:38:03;36.50;69.40
45549;DHT22;31270;48.328;10.096;2023-06-26T11:40:35;36.00;71.00
45549;DHT22;31270;48.328;10.096;2023-06-26T11:43:02;35.70;69.40
45549;DHT22;31270;48.328;10.096;2023-06-26T11:45:31;35.50;70.10
45549;DHT22;31270;48.328;10.096;2023-06-26T11:47:58;35.70;71.10
45549;DHT22;31270;48.328;10.096;2023-06-26T11:50:24;35.60;71.70
45549;DHT22;31270;48.328;10.096;2023-06-26T11:52:57;35.70;71.80
45549;DHT22;31270;48.328;10.096;2023-06-26T11:55:24;36.00;71.80
45549;DHT22;31270;48.328;10.096;2023-06-26T11:57:53;35.90;70.30
45549;DHT22;31270;48.328;10.096;2023-06-26T12:00:19;36.00;71.60
45549;DHT22;31270;48.328;10.096;2023-06-26T12:02:46;36.40;71.90
45549;DHT22;31270;48.328;10.096;2023-06-26T12:05:18;36.50;70.70
45549;DHT22;31270;48.328;10.096;2023-06-26T12:07:48;36.40;70.50
45549;DHT22;31270;48.328;10.096;2023-06-26T12:10:14;36.30;69.30
45549;DHT22;31270;48.328;10.096;2023-06-26T12:12:41;36.00;68.90
45549;DHT22;31270;48.328;10.096;2023-06-26T12:15:08;36.10;70.50
45549;DHT22;31270;48.328;10.096;2023-06-26T12:17:37;36.30;71.00
45549;DHT22;31270;48.328;10.096;2023-06-26T12:20:04;36.50;69.70
45549;DHT22;31270;48.328;10.096;2023-06-26T12:22:34;36.50;71.10
45549;DHT22;31270;48.328;10.096;2023-06-26T12:25:01;36.20;68.30
45549;DHT22;31270;48.328;10.096;2023-06-26T12:27:27;35.90;69.00
45549;DHT22;31270;48.328;10.096;2023-06-26T12:29:53;35.50;66.70
45549;DHT22;31270;48.328;10.096;2023-06-26T12:32:21;35.70;69.30
45549;DHT22;31270;48.328;10.096;2023-06-26T12:34:49;35.80;69.30
45549;DHT22;31270;48.328;10.096;2023-06-26T12:37:21;35.80;70.20
45549;DHT22;31270;48.328;10.096;2023-06-26T12:39:48;35.80;69.00
45549;DHT22;31270;48.328;10.096;2023-06-26T12:42:23;36.20;70.40
45549;DHT22;31270;48.328;10.096;2023-06-26T12:44:49;36.10;68.60
45549;DHT22;31270;48.328;10.096;2023-06-26T12:47:16;36.00;69.60
45549;DHT22;31270;48.328;10.096;2023-06-26T12:49:44;36.00;70.30
45549;DHT22;31270;48.328;10.096;2023-06-26T12:52:12;36.00;68.40
45549;DHT22;31270;48.328;10.096;2023-06-26T12:54:40;36.10;69.70
45549;DHT22;31270;48.328;10.096;2023-06-26T12:57:06;36.20;69.80
45549;DHT22;31270;48.328;10.096;2023-06-26T12:59:33;36.10;69.60
45549;DHT22;31270;48.328;10.096;2023-06-26T13:01:59;35.90;69.20
45549;DHT22;31270;48.328;10.096;2023-06-26T13:04:25;35.90;70.80
45549;DHT22;31270;48.328;10.096;2023-06-26T13:06:57;35.70;71.60
45549;DHT22;31270;48.328;10.096;2023-06-26T13:09:24;35.90;70.30
45549;DHT22;31270;48.328;10.096;2023-06-26T13:11:51;35.90;70.30
45549;DHT22;31270;48.328;10.096;2023-06-26T13:14:16;36.00;72.50
45549;DHT22;31270;48.328;10.096;2023-06-26T13:16:42;35.80;70.20
45549;DHT22;31270;48.328;10.096;2023-06-26T13:19:07;35.90;71.40
45549;DHT22;31270;48.328;10.096;2023-06-26T13:21:34;35.20;71.40
45549;DHT22;31270;48.328;10.096;2023-06-26T13:23:59;35.10;70.90
45549;DHT22;31270;48.328;10.096;2023-06-26T13:26:25;35.50;72.60
45549;DHT22;31270;48.328;10.096;2023-06-26T13:28:52;35.30;69.90
45549;DHT22;31270;48.328;10.096;2023-06-26T13:31:18;35.10;71.00
45549;DHT22;31270;48.328;10.096;2023-06-26T13:33:44;34.80;71.60
45549;DHT22;31270;48.328;10.096;2023-06-26T13:36:11;34.60;74.80
45549;DHT22;31270;48.328;10.096;2023-06-26T13:38:37;34.70;73.10
45549;DHT22;31270;48.328;10.096;2023-06-26T13:41:02;34.90;73.60
45549;DHT22;31270;48.328;10.096;2023-06-26T13:43:29;35.10;74.00
45549;DHT22;31270;48.328;10.096;2023-06-26T13:45:55;35.30;71.50
45549;DHT22;31270;48.328;10.096;2023-06-26T13:48:21;34.90;71.30
45549;DHT22;31270;48.328;10.096;2023-06-26T13:50:47;34.50;72.80
45549;DHT22;31270;48.328;10.096;2023-06-26T13:53:13;34.40;73.70
45549;DHT22;31270;48.328;10.096;2023-06-26T13:55:40;34.20;74.10
45549;DHT22;31270;48.328;10.096;2023-06-26T13:58:06;33.70;74.70
45549;DHT22;31270;48.328;10.096;2023-06-26T14:00:33;33.30;77.50
45549;DHT22;31270;48.328;10.096;2023-06-26T14:03:05;33.50;76.50
45549;DHT22;31270;48.328;10.096;2023-06-26T14:05:36;33.40;77.50
45549;DHT22;31270;48.328;10.096;2023-06-26T14:08:07;33.40;77.50
45549;DHT22;31270;48.328;10.096;2023-06-26T14:10:33;33.70;78.50
45549;DHT22;31270;48.328;10.096;2023-06-26T14:13:02;33.70;78.40
45549;DHT22;31270;48.328;10.096;2023-06-26T14:15:29;33.50;76.90
45549;DHT22;31270;48.328;10.096;2023-06-26T14:17:55;33.30;77.70
45549;DHT22;31270;48.328;10.096;2023-06-26T14:20:21;33.20;77.40
45549;DHT22;31270;48.328;10.096;2023-06-26T14:22:48;33.10;77.50
45549;DHT22;31270;48.328;10.096;2023-06-26T14:25:14;33.20;77.90
45549;DHT22;31270;48.328;10.096;2023-06-26T14:27:40;33.30;79.40
45549;DHT22;31270;48.328;10.096;2023-06-26T14:30:06;33.10;78.40
45549;DHT22;31270;48.328;10.096;2023-06-26T14:32:33;33.00;78.20
45549;DHT22;31270;48.328;10.096;2023-06-26T14:34:59;32.80;78.20
45549;DHT22;31270;48.328;10.096;2023-06-26T14:37:25;32.50;79.30
45549;DHT22;31270;48.328;10.096;2023-06-26T14:39:51;32.30;79.80
45549;DHT22;31270;48.328;10.096;2023-06-26T14:42:17;32.20;79.90
45549;DHT22;31270;48.328;10.096;2023-06-26T14:44:43;31.70;79.80
45549;DHT22;31270;48.328;10.096;2023-06-26T14:47:12;31.60;81.30
45549;DHT22;31270;48.328;10.096;2023-06-26T14:49:38;31.40;82.60
45549;DHT22;31270;48.328;10.096;2023-06-26T14:52:04;31.50;83.30
45549;DHT22;31270;48.328;10.096;2023-06-26T14:54:30;31.60;83.50
45549;DHT22;31270;48.328;10.096;2023-06-26T14:56:55;31.60;83.30
45549;DHT22;31270;48.328;10.096;2023-06-26T14:59:21;31.50;83.60
45549;DHT22;31270;48.328;10.096;2023-06-26T15:01:46;31.20;83.80
45549;DHT22;31270;48.328;10.096;2023-06-26T15:04:12;31.00;84.10
45549;DHT22;31270;48.328;10.096;2023-06-26T15:06:37;30.90;85.80
45549;DHT22;31270;48.328;10.096;2023-06-26T15:09:03;30.80;85.50
45549;DHT22;31270;48.328;10.096;2023-06-26T15:11:29;30.60;85.90
45549;DHT22;31270;48.328;10.096;2023-06-26T15:13:55;30.60;86.90
45549;DHT22;31270;48.328;10.096;2023-06-26T15:16:21;30.30;86.20
45549;DHT22;31270;48.328;10.096;2023-06-26T15:18:47;30.40;87.80
45549;DHT22;31270;48.328;10.096;2023-06-26T15:21:13;30.40;88.50
45549;DHT22;31270;48.328;10.096;2023-06-26T15:23:38;30.30;88.90
45549;DHT22;31270;48.328;10.096;2023-06-26T15:26:04;30.30;88.60
45549;DHT22;31270;48.328;10.096;2023-06-26T15:28:30;30.10;88.60